Time;durP1;ratioP1;P1;durP2;ratioP2;P2;SDS_P1;SDS_P2;PMS_P1;PMS_P2;Temp;Humidity;BMP_temperature;BMP_pressure;BME280_temperature;BME280_humidity;BME280_pressure;Samples;Min_cycle;Max_cycle;Signal;HPM_P1;HPM_P2
2023/06/21 00:00:46;;;;;;;11.27;10.13;;;;;;;18.24;100.00;101028.38;5035790;28;20040;-70
2023/06/21 00:03:11;;;;;;;12.38;11.15;;;;;;;18.28;100.00;101024.44;5041407;28;20047;-69
2023/06/21 00:05:40;;;;;;;12.38;11.15;;;;;;;18.29;100.00;101019.91;5023622;28;20032;-67
2023/06/21 00:08:05;;;;;;;12.23;11.00;;;;;;;18.30;100.00;101022.47;5037656;28;20100;-68
2023/06/21 00:10:31;;;;;;;12.02;10.90;;;;;;;18.28;100.00;101026.28;5035829;28;20227;-68
2023/06/21 00:12:57;;;;;;;12.25;11.02;;;;;;;18.24;100.00;101028.38;5042262;28;20043;-68
2023/06/21 00:15:23;;;;;;;11.75;10.55;;;;;;;18.19;100.00;101029.72;5041672;28;20025;-68
2023/06/21 00:17:48;;;;;;;11.95;10.75;;;;;;;18.16;100.00;101034.38;5041028;28;20489;-68
2023/06/21 00:20:14;;;;;;;12.45;10.82;;;;;;;18.10;100.00;101029.47;5041971;28;20025;-69
2023/06/21 00:22:40;;;;;;;11.52;10.48;;;;;;;18.08;100.00;101042.19;5021784;28;20029;-68
2023/06/21 00:25:07;;;;;;;11.32;10.25;;;;;;;18.04;100.00;101040.72;5021654;28;20130;-69
2023/06/21 00:27:36;;;;;;;11.48;10.23;;;;;;;18.07;100.00;101039.63;5037430;28;20071;-68
2023/06/21 00:30:05;;;;;;;10.95;9.88;;;;;;;18.02;100.00;101026.53;5029381;28;20043;-68
2023/06/21 00:32:33;;;;;;;11.63;10.45;;;;;;;17.98;100.00;101022.38;5042074;28;20028;-68
2023/06/21 00:34:58;;;;;;;10.90;9.95;;;;;;;18.01;100.00;101018.56;5039077;28;20155;-68
2023/06/21 00:37:26;;;;;;;12.93;9.90;;;;;;;18.05;100.00;101028.97;5040562;28;20107;-68
2023/06/21 00:39:51;;;;;;;11.82;10.65;;;;;;;17.96;100.00;101031.53;5042566;28;20039;-68
2023/06/21 00:42:17;;;;;;;11.70;10.52;;;;;;;17.95;100.00;101030.69;5041394;28;20802;-69
2023/06/21 00:44:42;;;;;;;12.38;10.57;;;;;;;17.94;100.00;101037.06;5041704;28;20407;-69
2023/06/21 00:47:08;;;;;;;10.27;9.25;;;;;;;17.90;100.00;101044.53;5034632;28;20040;-68
2023/06/21 00:49:33;;;;;;;11.73;10.63;;;;;;;17.89;100.00;101045.50;5039258;28;20517;-69
2023/06/21 00:51:58;;;;;;;11.90;10.68;;;;;;;17.85;100.00;101045.88;5041983;28;20049;-68
2023/06/21 00:54:31;;;;;;;11.43;10.32;;;;;;;17.80;100.00;101050.72;5038015;28;20025;-69
2023/06/21 00:56:57;;;;;;;11.57;10.45;;;;;;;17.80;100.00;101042.66;5042630;28;20033;-69
2023/06/21 00:59:26;;;;;;;10.65;9.68;;;;;;;17.71;100.00;101044.19;5027194;28;20501;-67
2023/06/21 01:01:51;;;;;;;12.77;11.57;;;;;;;17.74;100.00;101044.00;5021688;28;20029;-67
2023/06/21 01:04:17;;;;;;;12.35;11.25;;;;;;;17.77;100.00;101046.47;5021317;28;20060;-68
2023/06/21 01:07:05;;;;;;;11.73;10.63;;;;;;;17.72;100.00;101053.97;5040891;28;20360;-68
2023/06/21 01:09:55;;;;;;;12.13;11.00;;;;;;;17.73;100.00;101055.72;5040441;28;20017;-67
2023/06/21 01:12:36;;;;;;;10.82;9.82;;;;;;;17.76;100.00;101041.16;5041180;28;20751;-68
2023/06/21 01:15:07;;;;;;;11.40;10.35;;;;;;;17.73;100.00;101047.63;5040962;28;20388;-69
2023/06/21 01:17:35;;;;;;;12.20;11.00;;;;;;;17.73;100.00;101044.94;5035833;28;20052;-68
2023/06/21 01:20:10;;;;;;;11.98;10.90;;;;;;;17.74;100.00;101043.09;5036495;28;20376;-67
2023/06/21 01:22:48;;;;;;;12.85;11.45;;;;;;;17.69;100.00;101046.16;5035374;28;20037;-70
2023/06/21 01:25:58;;;;;;;12.65;11.40;;;;;;;17.72;100.00;101045.03;5025634;28;20059;-68
2023/06/21 01:28:47;;;;;;;12.23;11.00;;;;;;;17.74;100.00;101048.50;5031716;28;20052;-68
2023/06/21 01:31:14;;;;;;;12.20;11.10;;;;;;;17.72;100.00;101043.22;5034286;28;20025;-69
2023/06/21 01:33:39;;;;;;;12.07;10.98;;;;;;;17.77;100.00;101051.84;5023038;28;20021;-68
2023/06/21 01:36:05;;;;;;;12.90;11.63;;;;;;;17.76;100.00;101063.56;5045604;28;20043;-69
2023/06/21 01:38:32;;;;;;;12.95;11.60;;;;;;;17.73;100.00;101063.78;5044734;28;20040;-68
2023/06/21 01:40:57;;;;;;;14.85;13.32;;;;;;;17.74;100.00;101065.53;5044392;28;20025;-68
2023/06/21 01:43:23;;;;;;;15.15;13.57;;;;;;;17.66;100.00;101065.22;5043364;28;20040;-68
2023/06/21 01:45:49;;;;;;;13.00;11.82;;;;;;;17.62;100.00;101066.44;5044918;28;20317;-69
2023/06/21 01:48:15;;;;;;;13.70;12.32;;;;;;;17.66;100.00;101058.00;5032663;28;20037;-68
2023/06/21 01:50:41;;;;;;;12.93;11.65;;;;;;;17.66;100.00;101057.16;5045001;28;20346;-68
2023/06/21 01:53:08;;;;;;;12.88;11.73;;;;;;;17.70;100.00;101055.94;5043449;28;20540;-68
2023/06/21 01:55:34;;;;;;;13.20;11.90;;;;;;;17.70;100.00;101066.72;5043336;28;20135;-68
2023/06/21 01:57:59;;;;;;;14.27;12.98;;;;;;;17.67;100.00;101066.94;5024854;28;20037;-68
2023/06/21 02:00:26;;;;;;;13.02;11.70;;;;;;;17.64;100.00;101072.56;5040249;28;20628;-67
2023/06/21 02:02:55;;;;;;;13.55;12.35;;;;;;;17.66;100.00;101076.00;5042273;28;20070;-68
2023/06/21 02:05:21;;;;;;;14.50;13.00;;;;;;;17.67;100.00;101085.78;5042502;28;20032;-68
2023/06/21 02:07:48;;;;;;;13.93;12.63;;;;;;;17.69;100.00;101078.47;5042368;28;20040;-68
2023/06/21 02:10:19;;;;;;;17.40;14.25;;;;;;;17.67;100.00;101081.25;5040523;28;20013;-68
2023/06/21 02:12:52;;;;;;;14.88;13.38;;;;;;;17.68;100.00;101091.06;5040524;28;20047;-68
2023/06/21 02:15:18;;;;;;;14.77;13.27;;;;;;;17.65;100.00;101082.38;5039256;28;20037;-68
2023/06/21 02:17:50;;;;;;;14.48;13.00;;;;;;;17.65;100.00;101090.44;5041405;28;20045;-68
2023/06/21 02:20:17;;;;;;;14.18;12.85;;;;;;;17.66;100.00;101100.22;5041045;28;20025;-68
2023/06/21 02:22:43;;;;;;;15.13;13.63;;;;;;;17.62;100.00;101104.97;5037425;28;20029;-68
2023/06/21 02:25:09;;;;;;;14.45;12.95;;;;;;;17.62;100.00;101106.81;5043137;28;20020;-68
2023/06/21 02:27:35;;;;;;;14.20;12.80;;;;;;;17.60;100.00;101104.25;5042450;28;20029;-68
2023/06/21 02:30:08;;;;;;;15.50;14.05;;;;;;;17.60;100.00;101103.41;5039499;28;20048;-67
2023/06/21 02:32:33;;;;;;;14.45;12.95;;;;;;;17.58;100.00;101105.34;5043537;28;20055;-68
2023/06/21 02:34:59;;;;;;;15.57;14.15;;;;;;;17.55;100.00;101125.25;5043324;28;20495;-68
2023/06/21 02:37:24;;;;;;;15.57;13.98;;;;;;;17.57;100.00;101133.22;5042719;28;20025;-69
2023/06/21 02:39:50;;;;;;;15.30;13.80;;;;;;;17.55;100.00;101124.41;5038613;28;20641;-68
2023/06/21 02:42:15;;;;;;;15.27;13.73;;;;;;;17.49;100.00;101127.56;5043696;28;20418;-69
2023/06/21 02:44:41;;;;;;;15.60;14.10;;;;;;;17.42;100.00;101119.94;5040761;28;20044;-68
2023/06/21 02:47:07;;;;;;;15.45;13.95;;;;;;;17.49;100.00;101127.56;5013184;28;20156;-67
2023/06/21 02:49:36;;;;;;;15.48;14.07;;;;;;;17.51;100.00;101131.84;5042355;28;20492;-69
2023/06/21 02:52:02;;;;;;;15.77;14.15;;;;;;;17.45;100.00;101129.63;5042295;28;20057;-67
2023/06/21 02:54:28;;;;;;;15.38;13.80;;;;;;;17.44;100.00;101133.31;5041243;28;20060;-69
2023/06/21 02:56:53;;;;;;;16.30;14.60;;;;;;;17.52;100.00;101140.81;5033470;28;20033;-68
2023/06/21 02:59:18;;;;;;;16.63;14.93;;;;;;;17.52;100.00;101136.28;5042096;28;20096;-69
2023/06/21 03:01:46;;;;;;;16.08;14.57;;;;;;;17.52;100.00;101140.81;5041906;28;20104;-67
2023/06/21 03:04:12;;;;;;;15.85;14.38;;;;;;;17.54;100.00;101146.91;5040828;28;20033;-68
2023/06/21 03:06:37;;;;;;;16.10;14.60;;;;;;;17.53;100.00;101159.50;5042154;28;20419;-71
2023/06/21 03:09:03;;;;;;;16.38;14.48;;;;;;;17.51;100.00;101160.59;5041233;28;20075;-68
2023/06/21 03:11:29;;;;;;;17.30;14.82;;;;;;;17.53;100.00;101156.81;5041869;28;20048;-69
2023/06/21 03:13:54;;;;;;;15.60;14.10;;;;;;;17.47;100.00;101159.09;5034163;28;20121;-69
2023/06/21 03:16:20;;;;;;;16.65;15.05;;;;;;;17.48;100.00;101163.53;5037730;28;20147;-68
2023/06/21 03:18:46;;;;;;;17.05;15.23;;;;;;;17.45;100.00;101169.13;5037354;28;20044;-69
2023/06/21 03:21:11;;;;;;;16.63;14.95;;;;;;;17.41;100.00;101173.88;5042100;28;20025;-68
2023/06/21 03:23:36;;;;;;;16.95;15.25;;;;;;;17.44;100.00;101176.34;5043047;28;20395;-68
2023/06/21 03:26:02;;;;;;;17.23;15.63;;;;;;;17.46;100.00;101170.84;5042562;28;20036;-68
2023/06/21 03:28:27;;;;;;;18.00;16.30;;;;;;;17.45;100.00;101183.44;5043665;28;20029;-67
2023/06/21 03:30:53;;;;;;;18.08;16.27;;;;;;;17.41;100.00;101177.44;5043730;28;20445;-67
2023/06/21 03:33:18;;;;;;;17.70;15.93;;;;;;;17.41;100.00;101172.03;5040392;28;20737;-68
2023/06/21 03:35:44;;;;;;;16.85;15.35;;;;;;;17.39;100.00;101174.00;5042629;28;20614;-68
2023/06/21 03:38:09;;;;;;;18.83;17.05;;;;;;;17.41;100.00;101180.13;5037034;28;20139;-69
2023/06/21 03:40:35;;;;;;;17.42;15.68;;;;;;;17.44;100.00;101179.03;5024406;28;20029;-68
2023/06/21 03:43:03;;;;;;;17.90;16.20;;;;;;;17.43;100.00;101188.06;5043009;28;20029;-67
2023/06/21 03:45:29;;;;;;;18.40;16.60;;;;;;;17.44;100.00;101176.34;5042473;28;20029;-68
2023/06/21 03:47:54;;;;;;;19.38;17.48;;;;;;;17.47;100.00;101177.94;5041991;28;20043;-67
2023/06/21 03:50:19;;;;;;;18.38;16.65;;;;;;;17.45;100.00;101179.91;5039348;28;20244;-67
2023/06/21 03:52:45;;;;;;;19.55;17.65;;;;;;;17.46;100.00;101182.47;5041114;28;20075;-68
2023/06/21 03:55:10;;;;;;;19.13;17.20;;;;;;;17.47;100.00;101181.47;5037880;28;20134;-67
2023/06/21 03:57:36;;;;;;;19.33;17.52;;;;;;;17.52;100.00;101186.56;5041929;28;20056;-68
2023/06/21 04:00:06;;;;;;;19.00;17.13;;;;;;;17.56;100.00;101179.97;5040765;28;20080;-69
2023/06/21 04:02:32;;;;;;;19.48;17.58;;;;;;;17.59;100.00;101183.25;5041661;28;20028;-68
2023/06/21 04:04:57;;;;;;;19.55;17.65;;;;;;;17.73;100.00;101189.47;5041872;28;20183;-68
2023/06/21 04:07:23;;;;;;;20.08;17.98;;;;;;;17.78;100.00;101188.16;5041059;28;20029;-68
2023/06/21 04:09:49;;;;;;;19.17;17.30;;;;;;;17.80;100.00;101205.06;5040951;28;20120;-68
2023/06/21 04:12:14;;;;;;;19.40;17.52;;;;;;;17.88;100.00;101204.47;5040345;28;20505;-68
2023/06/21 04:14:40;;;;;;;19.77;17.85;;;;;;;17.95;100.00;101204.88;5038889;28;20029;-70
2023/06/21 04:17:06;;;;;;;19.50;17.63;;;;;;;17.98;100.00;101213.59;5022558;28;20029;-68
2023/06/21 04:19:31;;;;;;;20.00;17.90;;;;;;;18.00;100.00;101218.84;5041415;28;20029;-67
2023/06/21 04:21:56;;;;;;;21.13;19.02;;;;;;;18.01;100.00;101212.47;5042311;28;20028;-69
2023/06/21 04:24:22;;;;;;;20.35;18.35;;;;;;;18.04;100.00;101223.88;5040541;28;20060;-70
2023/06/21 04:26:48;;;;;;;19.27;17.30;;;;;;;18.09;100.00;101221.69;5040334;28;20143;-69
2023/06/21 04:29:16;;;;;;;20.13;18.02;;;;;;;18.11;100.00;101226.97;5037668;28;20029;-69
2023/06/21 04:31:42;;;;;;;19.33;17.45;;;;;;;18.13;100.00;101227.72;5039282;28;20021;-68
2023/06/21 04:34:08;;;;;;;20.13;17.67;;;;;;;18.12;100.00;101228.69;5040482;28;20033;-68
2023/06/21 04:36:34;;;;;;;19.77;17.83;;;;;;;18.11;100.00;101229.66;5040788;28;20029;-67
2023/06/21 04:39:00;;;;;;;19.85;17.95;;;;;;;18.02;100.00;101239.31;5034216;28;20123;-68
2023/06/21 04:41:25;;;;;;;19.02;17.10;;;;;;;18.03;100.00;101241.03;5041680;28;20292;-68
2023/06/21 04:43:51;;;;;;;20.25;18.20;;;;;;;17.98;100.00;101245.91;5037006;28;20048;-68
2023/06/21 04:46:17;;;;;;;19.85;18.02;;;;;;;18.03;100.00;101237.47;5038574;28;20114;-67
2023/06/21 04:48:44;;;;;;;20.08;18.17;;;;;;;18.07;100.00;101231.75;5031752;28;20158;-68
2023/06/21 04:51:15;;;;;;;20.85;18.70;;;;;;;18.21;100.00;101224.44;5040145;28;20098;-68
2023/06/21 04:53:49;;;;;;;20.73;18.73;;;;;;;18.37;100.00;101233.91;5041205;28;20483;-68
2023/06/21 04:56:15;;;;;;;18.42;16.52;;;;;;;18.50;100.00;101219.47;5040130;28;20025;-67
2023/06/21 04:58:40;;;;;;;23.42;17.42;;;;;;;18.63;100.00;101233.72;5041877;28;20033;-68
2023/06/21 05:01:06;;;;;;;23.95;19.77;;;;;;;18.71;100.00;101231.28;5041883;28;20104;-68
2023/06/21 05:03:32;;;;;;;20.33;18.33;;;;;;;18.79;100.00;101234.25;5041409;28;20047;-68
2023/06/21 05:05:59;;;;;;;20.27;18.17;;;;;;;18.76;100.00;101236.31;5041177;28;20570;-68
2023/06/21 05:08:24;;;;;;;19.75;17.67;;;;;;;18.85;100.00;101247.25;5039589;28;20091;-68
2023/06/21 05:10:49;;;;;;;19.98;17.98;;;;;;;18.93;100.00;101241.22;5018683;28;20029;-68
2023/06/21 05:13:15;;;;;;;20.65;18.45;;;;;;;19.12;100.00;101244.19;5044305;28;20344;-68
2023/06/21 05:15:40;;;;;;;49.42;21.38;;;;;;;19.27;100.00;101247.50;5044178;28;20029;-68
2023/06/21 05:18:05;;;;;;;23.92;19.10;;;;;;;19.20;100.00;101261.59;5042545;28;20036;-69
2023/06/21 05:20:32;;;;;;;27.73;18.70;;;;;;;19.04;100.00;101264.66;5040141;28;20401;-68
2023/06/21 05:22:57;;;;;;;20.30;18.40;;;;;;;18.97;100.00;101275.06;5017122;28;20081;-68
2023/06/21 05:25:22;;;;;;;20.45;16.90;;;;;;;18.96;100.00;101276.06;5036661;28;20031;-68
2023/06/21 05:27:48;;;;;;;24.13;18.80;;;;;;;18.98;100.00;101267.84;5041584;28;20021;-69
2023/06/21 05:30:13;;;;;;;21.02;18.75;;;;;;;19.00;100.00;101273.97;5037653;28;20453;-69
2023/06/21 05:32:39;;;;;;;21.80;19.63;;;;;;;19.03;100.00;101273.75;5040581;28;20037;-69
2023/06/21 05:35:05;;;;;;;24.17;18.20;;;;;;;19.09;100.00;101262.44;5039091;28;20024;-69
2023/06/21 05:37:30;;;;;;;21.40;19.30;;;;;;;19.24;100.00;101263.06;5038850;28;20033;-68
2023/06/21 05:40:00;;;;;;;22.05;19.85;;;;;;;19.33;100.00;101273.97;5041698;28;20028;-72
2023/06/21 05:42:26;;;;;;;22.77;20.23;;;;;;;19.45;100.00;101265.88;5024394;28;20056;-69
2023/06/21 05:44:52;;;;;;;22.80;20.40;;;;;;;19.47;100.00;101272.84;5036917;28;20408;-71
2023/06/21 05:47:17;;;;;;;22.60;20.42;;;;;;;19.40;100.00;101277.91;5043542;28;20117;-71
2023/06/21 05:49:42;;;;;;;21.85;19.73;;;;;;;19.40;100.00;101283.31;5042477;28;20052;-69
2023/06/21 05:52:08;;;;;;;22.42;20.02;;;;;;;19.47;100.00;101289.03;5043494;28;20064;-69
2023/06/21 05:54:33;;;;;;;24.00;21.73;;;;;;;19.47;100.00;101291.75;5038930;28;20025;-69
2023/06/21 05:56:58;;;;;;;23.23;20.83;;;;;;;19.51;100.00;101287.81;5039649;28;20029;-69
2023/06/21 05:59:24;;;;;;;22.85;20.60;;;;;;;19.60;100.00;101292.44;5039196;28;20035;-69
2023/06/21 06:01:49;;;;;;;22.27;20.17;;;;;;;19.77;100.00;101296.53;5038985;28;20039;-69
2023/06/21 06:04:15;;;;;;;23.23;20.92;;;;;;;20.00;100.00;101300.00;5042509;28;20036;-69
2023/06/21 06:06:41;;;;;;;22.42;16.88;;;;;;;20.20;100.00;101303.75;5043312;28;20021;-69
2023/06/21 06:09:11;;;;;;;48.67;19.77;;;;;;;20.28;100.00;101306.66;5042824;28;20029;-69
2023/06/21 06:11:36;;;;;;;20.17;15.85;;;;;;;20.38;100.00;101307.59;5043709;28;20218;-69
2023/06/21 06:14:02;;;;;;;16.90;15.30;;;;;;;20.43;100.00;101306.34;5043932;28;20025;-70
2023/06/21 06:16:28;;;;;;;17.65;15.68;;;;;;;20.53;100.00;101323.56;5041413;28;20017;-69
2023/06/21 06:18:53;;;;;;;16.65;15.05;;;;;;;20.55;100.00;101327.81;5042479;28;20025;-70
2023/06/21 06:21:21;;;;;;;17.58;15.82;;;;;;;20.52;100.00;101329.94;5044052;28;20029;-69
2023/06/21 06:23:52;;;;;;;16.10;14.70;;;;;;;20.33;100.00;101334.16;5026183;28;20115;-70
2023/06/21 06:26:25;;;;;;;16.92;15.30;;;;;;;20.16;100.00;101345.53;5043420;28;20633;-70
2023/06/21 06:28:50;;;;;;;;;;;;;;;20.21;100.00;101351.41;5032837;28;20268;-68
2023/06/21 06:31:19;;;;;;;16.45;14.75;;;;;;;19.92;100.00;101350.28;5029312;28;19917;-69
2023/06/21 06:33:45;;;;;;;17.48;15.88;;;;;;;19.92;100.00;101356.53;5038509;28;20145;-69
2023/06/21 06:36:10;;;;;;;15.95;14.43;;;;;;;20.12;100.00;101357.59;5038994;28;20456;-69
2023/06/21 06:38:35;;;;;;;17.02;15.30;;;;;;;20.21;99.20;101355.97;5042813;28;20032;-68
2023/06/21 06:41:01;;;;;;;18.13;16.23;;;;;;;20.36;100.00;101358.25;5042870;28;20053;-70
2023/06/21 06:43:26;;;;;;;16.65;14.95;;;;;;;20.67;100.00;101369.19;5043893;28;20028;-69
2023/06/21 06:45:52;;;;;;;16.48;14.98;;;;;;;20.83;97.17;101366.03;5038353;28;20037;-70
2023/06/21 06:48:17;;;;;;;17.00;15.30;;;;;;;21.04;94.85;101368.75;5041596;28;20040;-69
2023/06/21 06:50:43;;;;;;;14.05;12.77;;;;;;;21.23;96.53;101370.69;5037711;28;20076;-70
2023/06/21 06:53:08;;;;;;;12.00;10.80;;;;;;;21.16;91.01;101364.97;5037800;28;20045;-69
2023/06/21 06:55:34;;;;;;;12.55;11.25;;;;;;;21.37;88.52;101373.94;5040182;28;20094;-69
2023/06/21 06:58:01;;;;;;;11.88;10.45;;;;;;;21.52;87.25;101379.00;5041080;28;20031;-70
2023/06/21 07:00:27;;;;;;;11.10;10.00;;;;;;;21.73;87.89;101389.78;5040995;28;20078;-69
2023/06/21 07:02:56;;;;;;;10.30;9.30;;;;;;;21.88;83.77;101388.41;5043815;28;20056;-69
2023/06/21 07:05:23;;;;;;;10.65;9.65;;;;;;;21.63;82.80;101395.16;5040740;28;20383;-70
2023/06/21 07:07:49;;;;;;;10.35;9.35;;;;;;;21.64;84.56;101395.00;5043254;28;20534;-69
2023/06/21 07:10:14;;;;;;;10.68;9.57;;;;;;;21.87;84.77;101398.38;5038906;28;20031;-70
2023/06/21 07:12:39;;;;;;;11.52;10.43;;;;;;;22.21;82.94;101394.50;5036463;28;20052;-70
2023/06/21 07:15:05;;;;;;;12.07;10.80;;;;;;;22.62;83.61;101393.41;5037654;28;20123;-69
2023/06/21 07:17:33;;;;;;;13.52;12.23;;;;;;;22.90;79.15;101394.41;5045174;28;20095;-68
2023/06/21 07:19:58;;;;;;;13.02;11.70;;;;;;;22.94;79.86;101400.41;5040230;28;20028;-69
2023/06/21 07:22:23;;;;;;;13.52;12.30;;;;;;;23.13;78.67;101394.09;5035107;28;20062;-69
2023/06/21 07:24:49;;;;;;;12.93;11.80;;;;;;;22.92;78.37;101395.13;5037795;28;20032;-70
2023/06/21 07:27:14;;;;;;;12.00;10.80;;;;;;;22.85;77.62;101393.94;5038372;28;20483;-70
2023/06/21 07:29:40;;;;;;;18.63;12.27;;;;;;;23.09;76.01;101390.81;5039073;28;20748;-69
2023/06/21 07:32:06;;;;;;;13.02;11.85;;;;;;;23.57;78.06;101384.34;5036316;28;20447;-68
2023/06/21 07:34:31;;;;;;;12.07;10.98;;;;;;;23.55;73.58;101383.66;5040532;28;20021;-70
2023/06/21 07:36:57;;;;;;;11.65;10.55;;;;;;;23.75;73.37;101395.34;5038424;28;20479;-69
2023/06/21 07:39:22;;;;;;;12.45;11.18;;;;;;;24.07;71.49;101395.72;5040171;28;20403;-68
2023/06/21 07:41:47;;;;;;;12.68;11.55;;;;;;;24.51;68.78;101395.03;5035520;28;20575;-70
2023/06/21 07:44:13;;;;;;;12.82;11.60;;;;;;;24.96;67.79;101396.78;5039730;28;20526;-69
2023/06/21 07:46:38;;;;;;;14.27;13.00;;;;;;;25.79;64.48;101398.03;5037626;28;20519;-68
2023/06/21 07:49:03;;;;;;;14.25;12.95;;;;;;;26.21;62.74;101401.72;5039921;28;20602;-69
2023/06/21 07:51:29;;;;;;;13.52;12.23;;;;;;;26.37;60.12;101409.09;5039040;28;20059;-70
2023/06/21 07:53:54;;;;;;;12.65;11.45;;;;;;;26.61;60.25;101402.88;5041673;28;20036;-71
2023/06/21 07:56:19;;;;;;;12.93;11.70;;;;;;;26.85;60.94;101412.97;5023289;28;20041;-70
2023/06/21 07:58:46;;;;;;;13.98;12.60;;;;;;;27.51;57.81;101410.00;5040564;28;20467;-71
2023/06/21 08:01:12;;;;;;;13.23;12.02;;;;;;;28.07;56.59;101412.72;5036417;28;20090;-69
2023/06/21 08:03:37;;;;;;;12.57;11.48;;;;;;;28.04;53.62;101421.25;5035795;28;20336;-71
2023/06/21 08:06:03;;;;;;;12.77;11.68;;;;;;;28.40;53.70;101413.41;5038374;28;20128;-69
2023/06/21 08:08:28;;;;;;;12.68;11.55;;;;;;;29.16;51.24;101419.00;5033607;28;20110;-70
2023/06/21 08:10:56;;;;;;;13.30;12.10;;;;;;;29.51;49.74;101426.53;5040848;28;20483;-72
2023/06/21 08:13:22;;;;;;;11.95;10.75;;;;;;;29.06;48.14;101422.00;5038391;28;20040;-70
2023/06/21 08:15:49;;;;;;;10.25;9.20;;;;;;;28.85;50.80;101419.94;5041880;28;20483;-70
2023/06/21 08:18:14;;;;;;;12.30;10.82;;;;;;;29.56;49.54;101431.47;5037415;28;20033;-69
2023/06/21 08:20:40;;;;;;;11.25;10.32;;;;;;;29.62;48.22;101441.69;5034887;28;20029;-72
2023/06/21 08:23:06;;;;;;;12.18;11.07;;;;;;;28.33;50.44;101444.38;5039796;28;20076;-69
2023/06/21 08:25:32;;;;;;;12.70;11.52;;;;;;;28.16;50.76;101440.88;5038575;28;20014;-72
2023/06/21 08:27:57;;;;;;;9.98;9.18;;;;;;;28.07;49.55;101441.97;5033825;28;20029;-70
2023/06/21 08:30:23;;;;;;;8.85;8.10;;;;;;;28.10;49.12;101447.94;5036458;28;20036;-71
2023/06/21 08:32:48;;;;;;;9.82;8.95;;;;;;;28.63;49.85;101449.00;5039434;28;20056;-71
2023/06/21 08:35:13;;;;;;;10.30;9.45;;;;;;;29.53;45.83;101442.78;5037787;28;20159;-69
2023/06/21 08:37:39;;;;;;;10.80;9.80;;;;;;;29.94;46.05;101445.09;5037534;28;20021;-71
2023/06/21 08:40:07;;;;;;;12.43;11.32;;;;;;;30.33;45.34;101432.91;5033773;28;20033;-69
2023/06/21 08:42:32;;;;;;;11.50;10.60;;;;;;;31.22;43.77;101436.97;5045148;28;20044;-69
2023/06/21 08:44:57;;;;;;;12.90;11.80;;;;;;;31.70;41.46;101439.88;5041553;28;20635;-71
2023/06/21 08:47:28;;;;;;;10.63;9.60;;;;;;;32.00;40.01;101439.66;5043306;28;20017;-70
2023/06/21 08:49:58;;;;;;;10.27;9.38;;;;;;;32.58;39.78;101434.56;5045000;28;20025;-69
2023/06/21 08:52:27;;;;;;;12.50;11.40;;;;;;;33.19;38.72;101439.09;5041057;28;20032;-71
2023/06/21 08:55:07;;;;;;;13.73;12.63;;;;;;;33.33;40.04;101450.97;5040867;28;20032;-68
2023/06/21 08:57:39;;;;;;;13.98;12.77;;;;;;;33.18;40.32;101440.16;5040387;28;20025;-69
2023/06/21 09:00:09;;;;;;;12.68;11.68;;;;;;;33.96;38.41;101443.00;5044658;28;20025;-71
2023/06/21 09:02:52;;;;;;;11.80;10.90;;;;;;;34.41;37.17;101443.06;5045923;28;20025;-70
2023/06/21 09:05:25;;;;;;;9.95;9.15;;;;;;;34.50;34.78;101444.50;5042201;28;20095;-71
2023/06/21 09:07:51;;;;;;;9.00;8.25;;;;;;;33.61;35.13;101451.63;5043141;28;20184;-72
2023/06/21 09:10:20;;;;;;;9.80;9.00;;;;;;;33.92;34.39;101452.78;5045084;28;20147;-72
2023/06/21 09:12:48;;;;;;;9.82;9.02;;;;;;;32.94;34.29;101452.66;5044945;28;20037;-74
2023/06/21 09:15:14;;;;;;;7.43;6.82;;;;;;;30.97;37.14;101458.53;5040137;28;20028;-72
2023/06/21 09:17:42;;;;;;;8.10;7.30;;;;;;;30.63;37.99;101456.50;5042986;28;20032;-74
2023/06/21 09:20:09;;;;;;;6.57;5.97;;;;;;;32.43;35.29;101454.03;5043360;28;20025;-75
2023/06/21 09:22:35;;;;;;;8.23;7.43;;;;;;;32.62;35.56;101459.81;5017016;28;20064;-72
2023/06/21 09:25:01;;;;;;;9.30;8.45;;;;;;;32.95;34.56;101459.91;5012757;28;20458;-69
2023/06/21 09:27:26;;;;;;;8.90;8.10;;;;;;;34.05;33.22;101461.06;5043133;28;20033;-69
2023/06/21 09:29:52;;;;;;;10.45;9.55;;;;;;;34.69;31.46;101454.56;5044048;28;20041;-69
2023/06/21 09:32:17;;;;;;;10.45;9.52;;;;;;;35.30;30.68;101466.06;5041823;28;20025;-71
2023/06/21 09:34:42;;;;;;;6.90;6.30;;;;;;;35.69;29.78;101470.38;5041414;28;20028;-73
2023/06/21 09:37:08;;;;;;;9.95;9.05;;;;;;;35.95;29.11;101469.22;5043626;28;20029;-72
2023/06/21 09:39:33;;;;;;;9.68;8.88;;;;;;;36.61;28.82;101473.13;5042591;28;20021;-71
2023/06/21 09:41:58;;;;;;;7.60;7.00;;;;;;;37.09;29.06;101461.94;5034417;28;20549;-70
2023/06/21 09:44:24;;;;;;;7.43;6.82;;;;;;;37.64;27.35;101474.66;5038967;28;20036;-72
2023/06/21 09:46:57;;;;;;;7.97;7.28;;;;;;;37.91;27.42;101475.00;5039915;28;20037;-70
2023/06/21 09:49:26;;;;;;;7.38;6.78;;;;;;;37.21;26.52;101484.16;5037411;28;20190;-71
2023/06/21 09:51:51;;;;;;;7.60;7.00;;;;;;;35.48;28.76;101482.72;5023331;28;20049;-73
2023/06/21 09:54:17;;;;;;;6.50;5.95;;;;;;;33.97;30.17;101488.91;5037024;28;20036;-72
2023/06/21 09:56:42;;;;;;;6.85;6.10;;;;;;;33.80;32.43;101479.38;5042937;28;20064;-72
2023/06/21 09:59:19;;;;;;;6.70;6.18;;;;;;;33.10;32.95;101477.06;5041554;28;20106;-74
2023/06/21 10:01:47;;;;;;;7.70;7.00;;;;;;;34.29;30.60;101478.81;5039800;28;20057;-72
2023/06/21 10:04:15;;;;;;;8.73;7.95;;;;;;;35.72;29.17;101488.47;5043216;28;20516;-71
2023/06/21 10:06:47;;;;;;;8.27;7.57;;;;;;;36.58;28.99;101495.78;5042247;28;20044;-74
2023/06/21 10:09:12;;;;;;;;;;;;;;;38.04;28.96;101487.78;5044664;28;20025;-73
2023/06/21 10:11:38;;;;;;;8.27;7.53;;;;;;;35.80;28.46;101502.84;5038085;28;20325;-74
2023/06/21 10:14:04;;;;;;;8.85;7.43;;;;;;;34.82;29.70;101503.44;5040122;28;20032;-73
2023/06/21 10:16:32;;;;;;;8.57;6.50;;;;;;;35.26;30.03;101495.25;5036953;28;20039;-72
2023/06/21 10:18:58;;;;;;;6.95;6.40;;;;;;;36.13;27.48;101510.84;5032290;28;20169;-70
2023/06/21 10:21:25;;;;;;;7.50;6.75;;;;;;;36.71;27.47;101506.69;5036062;28;20094;-70
2023/06/21 10:23:52;;;;;;;7.45;5.43;;;;;;;37.40;25.66;101496.03;5034193;28;20028;-74
2023/06/21 10:26:19;;;;;;;7.82;7.18;;;;;;;37.94;25.18;101501.47;5034850;28;20036;-73
2023/06/21 10:28:54;;;;;;;6.95;6.35;;;;;;;38.16;25.71;101502.50;5029597;28;20033;-74
2023/06/21 10:31:23;;;;;;;7.22;6.53;;;;;;;38.51;24.69;101507.13;5038150;28;20033;-72
2023/06/21 10:33:50;;;;;;;8.77;7.97;;;;;;;38.51;25.08;101504.38;5037082;28;21442;-73
2023/06/21 10:36:21;;;;;;;7.43;6.82;;;;;;;39.01;24.00;101510.06;5038440;28;20029;-70
2023/06/21 10:38:48;;;;;;;6.13;5.63;;;;;;;40.03;25.88;101520.03;5035262;28;20082;-70
2023/06/21 10:41:14;;;;;;;6.45;5.85;;;;;;;39.78;23.05;101509.38;5038218;28;20021;-74
2023/06/21 10:43:40;;;;;;;5.97;5.45;;;;;;;39.18;23.25;101518.41;5043413;28;20021;-71
2023/06/21 10:46:08;;;;;;;6.85;6.28;;;;;;;39.01;24.13;101518.41;5035662;28;20037;-70
2023/06/21 10:48:34;;;;;;;4.10;3.70;;;;;;;39.48;23.34;101512.53;5039126;28;20025;-73
2023/06/21 10:51:02;;;;;;;4.72;4.28;;;;;;;40.05;23.22;101522.59;5043352;28;20497;-73
2023/06/21 10:53:35;;;;;;;5.72;4.45;;;;;;;40.23;22.41;101525.06;5037854;28;20523;-75
2023/06/21 10:56:05;;;;;;;4.60;4.30;;;;;;;39.58;22.56;101515.47;5039118;28;20609;-70
2023/06/21 10:58:31;;;;;;;4.60;4.20;;;;;;;40.27;22.06;101520.66;5041551;28;20315;-69
2023/06/21 11:00:57;;;;;;;4.85;4.45;;;;;;;40.51;22.62;101529.59;5039050;28;20104;-73
2023/06/21 11:03:25;;;;;;;5.22;4.72;;;;;;;40.48;21.37;101529.28;5043972;28;20032;-73
2023/06/21 11:06:13;;;;;;;4.80;4.40;;;;;;;39.18;23.93;101524.00;5043827;28;20383;-74
2023/06/21 11:08:38;;;;;;;5.72;5.22;;;;;;;37.56;24.54;101528.63;5041787;28;20317;-71